sensor_id;sensor_type;location;lat;lon;timestamp;P1;durP1;ratioP1;P2;durP2;ratioP2
59516;SDS011;45342;42.662;27.718;2022-10-17T00:01:48;4.50;;;3.88;;
59516;SDS011;45342;42.662;27.718;2022-10-17T00:04:13;4.93;;;3.75;;
59516;SDS011;45342;42.662;27.718;2022-10-17T00:06:39;6.75;;;3.88;;
59516;SDS011;45342;42.662;27.718;2022-10-17T00:09:05;6.53;;;4.40;;
59516;SDS011;45342;42.662;27.718;2022-10-17T00:11:30;8.63;;;4.22;;
59516;SDS011;45342;42.662;27.718;2022-10-17T00:13:56;5.72;;;4.20;;
59516;SDS011;45342;42.662;27.718;2022-10-17T00:16:26;5.40;;;4.05;;
59516;SDS011;45342;42.662;27.718;2022-10-17T00:18:53;7.22;;;4.32;;
59516;SDS011;45342;42.662;27.718;2022-10-17T00:21:19;6.50;;;4.28;;
59516;SDS011;45342;42.662;27.718;2022-10-17T00:23:45;5.13;;;3.97;;
59516;SDS011;45342;42.662;27.718;2022-10-17T00:26:11;6.88;;;4.63;;
59516;SDS011;45342;42.662;27.718;2022-10-17T00:28:37;7.45;;;4.28;;
59516;SDS011;45342;42.662;27.718;2022-10-17T00:31:03;5.43;;;4.20;;
59516;SDS011;45342;42.662;27.718;2022-10-17T00:33:30;5.82;;;3.78;;
59516;SDS011;45342;42.662;27.718;2022-10-17T00:36:03;4.80;;;3.72;;
59516;SDS011;45342;42.662;27.718;2022-10-17T00:38:31;5.32;;;3.92;;
59516;SDS011;45342;42.662;27.718;2022-10-17T00:40:56;10.00;;;4.35;;
59516;SDS011;45342;42.662;27.718;2022-10-17T00:43:22;8.75;;;4.32;;
59516;SDS011;45342;42.662;27.718;2022-10-17T00:45:48;8.90;;;4.45;;
59516;SDS011;45342;42.662;27.718;2022-10-17T00:48:13;6.20;;;4.55;;
59516;SDS011;45342;42.662;27.718;2022-10-17T00:50:40;7.18;;;4.45;;
59516;SDS011;45342;42.662;27.718;2022-10-17T00:53:07;9.45;;;4.82;;
59516;SDS011;45342;42.662;27.718;2022-10-17T00:58:00;6.93;;;4.30;;
59516;SDS011;45342;42.662;27.718;2022-10-17T01:00:28;5.72;;;4.22;;
59516;SDS011;45342;42.662;27.718;2022-10-17T01:02:53;7.75;;;4.47;;
59516;SDS011;45342;42.662;27.718;2022-10-17T01:05:19;7.68;;;4.70;;
59516;SDS011;45342;42.662;27.718;2022-10-17T01:07:45;10.13;;;4.50;;
59516;SDS011;45342;42.662;27.718;2022-10-17T01:10:11;11.27;;;4.40;;
59516;SDS011;45342;42.662;27.718;2022-10-17T01:12:47;8.00;;;4.47;;
59516;SDS011;45342;42.662;27.718;2022-10-17T01:18:19;8.63;;;5.03;;
59516;SDS011;45342;42.662;27.718;2022-10-17T01:29:56;5.10;;;4.00;;
59516;SDS011;45342;42.662;27.718;2022-10-17T01:40:35;9.63;;;4.95;;
59516;SDS011;45342;42.662;27.718;2022-10-17T01:45:57;6.38;;;4.03;;
59516;SDS011;45342;42.662;27.718;2022-10-17T01:48:36;5.43;;;4.00;;
59516;SDS011;45342;42.662;27.718;2022-10-17T01:51:26;6.95;;;4.45;;
59516;SDS011;45342;42.662;27.718;2022-10-17T01:54:07;7.90;;;4.68;;
59516;SDS011;45342;42.662;27.718;2022-10-17T01:56:36;7.03;;;4.57;;
59516;SDS011;45342;42.662;27.718;2022-10-17T01:59:06;6.90;;;4.47;;
59516;SDS011;45342;42.662;27.718;2022-10-17T02:01:36;7.55;;;4.50;;
59516;SDS011;45342;42.662;27.718;2022-10-17T02:04:02;6.68;;;4.45;;
59516;SDS011;45342;42.662;27.718;2022-10-17T02:06:28;6.90;;;4.45;;
59516;SDS011;45342;42.662;27.718;2022-10-17T02:08:53;6.30;;;4.25;;
59516;SDS011;45342;42.662;27.718;2022-10-17T02:11:23;6.15;;;4.53;;
59516;SDS011;45342;42.662;27.718;2022-10-17T02:22:00;6.65;;;4.10;;
59516;SDS011;45342;42.662;27.718;2022-10-17T02:27:22;6.78;;;4.00;;
59516;SDS011;45342;42.662;27.718;2022-10-17T02:29:58;5.57;;;3.70;;
59516;SDS011;45342;42.662;27.718;2022-10-17T02:33:02;5.57;;;4.30;;
59516;SDS011;45342;42.662;27.718;2022-10-17T02:35:22;6.13;;;4.60;;
59516;SDS011;45342;42.662;27.718;2022-10-17T02:37:50;4.93;;;4.07;;
59516;SDS011;45342;42.662;27.718;2022-10-17T02:40:16;6.53;;;4.50;;
59516;SDS011;45342;42.662;27.718;2022-10-17T02:42:43;5.05;;;3.78;;
59516;SDS011;45342;42.662;27.718;2022-10-17T02:45:09;7.10;;;4.55;;
59516;SDS011;45342;42.662;27.718;2022-10-17T02:47:36;6.18;;;4.20;;
59516;SDS011;45342;42.662;27.718;2022-10-17T02:50:08;7.80;;;4.60;;
59516;SDS011;45342;42.662;27.718;2022-10-17T02:55:05;8.07;;;4.63;;
59516;SDS011;45342;42.662;27.718;2022-10-17T02:57:40;8.02;;;4.32;;
59516;SDS011;45342;42.662;27.718;2022-10-17T03:00:11;7.50;;;4.63;;
59516;SDS011;45342;42.662;27.718;2022-10-17T03:02:38;7.22;;;4.18;;
59516;SDS011;45342;42.662;27.718;2022-10-17T03:05:05;8.68;;;5.13;;
59516;SDS011;45342;42.662;27.718;2022-10-17T03:07:32;9.38;;;4.75;;
59516;SDS011;45342;42.662;27.718;2022-10-17T03:09:57;7.00;;;4.38;;
59516;SDS011;45342;42.662;27.718;2022-10-17T03:12:23;8.48;;;4.75;;
59516;SDS011;45342;42.662;27.718;2022-10-17T03:14:48;8.70;;;4.55;;
59516;SDS011;45342;42.662;27.718;2022-10-17T03:17:14;9.55;;;4.72;;
59516;SDS011;45342;42.662;27.718;2022-10-17T03:19:39;8.15;;;4.75;;
59516;SDS011;45342;42.662;27.718;2022-10-17T03:22:05;6.88;;;4.53;;
59516;SDS011;45342;42.662;27.718;2022-10-17T03:24:30;7.45;;;4.90;;
59516;SDS011;45342;42.662;27.718;2022-10-17T03:26:56;6.63;;;4.20;;
59516;SDS011;45342;42.662;27.718;2022-10-17T03:29:21;6.68;;;4.43;;
59516;SDS011;45342;42.662;27.718;2022-10-17T03:31:47;6.47;;;4.38;;
59516;SDS011;45342;42.662;27.718;2022-10-17T03:34:13;6.68;;;4.68;;
59516;SDS011;45342;42.662;27.718;2022-10-17T03:36:40;9.30;;;4.82;;
59516;SDS011;45342;42.662;27.718;2022-10-17T03:39:06;6.72;;;4.72;;
59516;SDS011;45342;42.662;27.718;2022-10-17T03:41:31;9.43;;;5.07;;
59516;SDS011;45342;42.662;27.718;2022-10-17T03:43:57;5.97;;;4.40;;
59516;SDS011;45342;42.662;27.718;2022-10-17T03:46:22;7.47;;;5.00;;
59516;SDS011;45342;42.662;27.718;2022-10-17T03:48:48;9.88;;;4.63;;
59516;SDS011;45342;42.662;27.718;2022-10-17T03:51:14;8.65;;;5.05;;
59516;SDS011;45342;42.662;27.718;2022-10-17T03:53:39;7.90;;;4.93;;
59516;SDS011;45342;42.662;27.718;2022-10-17T03:56:12;7.85;;;5.00;;
59516;SDS011;45342;42.662;27.718;2022-10-17T03:58:42;8.55;;;4.88;;
59516;SDS011;45342;42.662;27.718;2022-10-17T04:01:09;8.45;;;4.45;;
59516;SDS011;45342;42.662;27.718;2022-10-17T04:03:36;11.30;;;5.50;;
59516;SDS011;45342;42.662;27.718;2022-10-17T04:06:03;10.38;;;5.38;;
59516;SDS011;45342;42.662;27.718;2022-10-17T04:08:29;7.60;;;5.00;;
59516;SDS011;45342;42.662;27.718;2022-10-17T04:10:58;7.60;;;4.40;;
59516;SDS011;45342;42.662;27.718;2022-10-17T04:13:25;7.80;;;4.80;;
59516;SDS011;45342;42.662;27.718;2022-10-17T04:15:59;10.02;;;5.15;;
59516;SDS011;45342;42.662;27.718;2022-10-17T04:18:26;9.63;;;4.93;;
59516;SDS011;45342;42.662;27.718;2022-10-17T04:20:52;7.28;;;4.55;;
59516;SDS011;45342;42.662;27.718;2022-10-17T04:23:18;9.27;;;4.90;;
59516;SDS011;45342;42.662;27.718;2022-10-17T04:25:43;8.80;;;4.45;;
59516;SDS011;45342;42.662;27.718;2022-10-17T04:28:09;9.07;;;4.75;;
59516;SDS011;45342;42.662;27.718;2022-10-17T04:30:35;7.25;;;4.68;;
59516;SDS011;45342;42.662;27.718;2022-10-17T04:33:01;8.57;;;5.10;;
59516;SDS011;45342;42.662;27.718;2022-10-17T04:35:27;8.27;;;4.85;;
59516;SDS011;45342;42.662;27.718;2022-10-17T04:37:52;8.57;;;4.88;;
59516;SDS011;45342;42.662;27.718;2022-10-17T04:40:18;8.60;;;4.53;;
59516;SDS011;45342;42.662;27.718;2022-10-17T04:42:43;8.02;;;4.55;;
59516;SDS011;45342;42.662;27.718;2022-10-17T04:45:09;6.13;;;4.88;;
59516;SDS011;45342;42.662;27.718;2022-10-17T04:47:35;10.25;;;4.75;;
59516;SDS011;45342;42.662;27.718;2022-10-17T04:50:00;9.27;;;4.90;;
59516;SDS011;45342;42.662;27.718;2022-10-17T04:52:26;7.45;;;4.88;;
59516;SDS011;45342;42.662;27.718;2022-10-17T04:54:51;10.10;;;5.22;;
59516;SDS011;45342;42.662;27.718;2022-10-17T04:57:17;8.07;;;5.07;;
59516;SDS011;45342;42.662;27.718;2022-10-17T04:59:44;7.80;;;4.72;;
59516;SDS011;45342;42.662;27.718;2022-10-17T05:02:09;8.73;;;4.57;;
59516;SDS011;45342;42.662;27.718;2022-10-17T05:04:35;9.10;;;4.60;;
59516;SDS011;45342;42.662;27.718;2022-10-17T05:07:00;10.82;;;4.80;;
59516;SDS011;45342;42.662;27.718;2022-10-17T05:09:26;8.27;;;5.00;;
59516;SDS011;45342;42.662;27.718;2022-10-17T05:11:52;6.85;;;4.72;;
59516;SDS011;45342;42.662;27.718;2022-10-17T05:14:17;8.70;;;4.85;;
59516;SDS011;45342;42.662;27.718;2022-10-17T05:16:43;7.30;;;4.47;;
59516;SDS011;45342;42.662;27.718;2022-10-17T05:19:09;7.95;;;4.43;;
59516;SDS011;45342;42.662;27.718;2022-10-17T05:21:35;7.00;;;4.47;;
59516;SDS011;45342;42.662;27.718;2022-10-17T05:24:03;7.53;;;4.40;;
59516;SDS011;45342;42.662;27.718;2022-10-17T05:26:33;7.68;;;4.35;;
59516;SDS011;45342;42.662;27.718;2022-10-17T05:28:59;7.85;;;4.43;;
59516;SDS011;45342;42.662;27.718;2022-10-17T05:31:27;7.22;;;4.60;;
59516;SDS011;45342;42.662;27.718;2022-10-17T05:33:54;6.90;;;4.30;;
59516;SDS011;45342;42.662;27.718;2022-10-17T05:36:22;6.53;;;4.30;;
59516;SDS011;45342;42.662;27.718;2022-10-17T05:38:49;9.65;;;4.70;;
59516;SDS011;45342;42.662;27.718;2022-10-17T05:41:16;6.38;;;4.15;;
59516;SDS011;45342;42.662;27.718;2022-10-17T05:43:45;9.35;;;4.68;;
59516;SDS011;45342;42.662;27.718;2022-10-17T05:46:11;6.72;;;4.38;;
59516;SDS011;45342;42.662;27.718;2022-10-17T05:48:37;6.63;;;4.00;;
59516;SDS011;45342;42.662;27.718;2022-10-17T05:51:04;8.50;;;4.78;;
59516;SDS011;45342;42.662;27.718;2022-10-17T05:53:32;8.07;;;4.22;;
59516;SDS011;45342;42.662;27.718;2022-10-17T05:55:59;8.07;;;4.93;;
59516;SDS011;45342;42.662;27.718;2022-10-17T05:58:27;10.90;;;4.82;;
59516;SDS011;45342;42.662;27.718;2022-10-17T06:03:25;6.60;;;4.20;;
59516;SDS011;45342;42.662;27.718;2022-10-17T06:05:51;8.18;;;4.28;;
59516;SDS011;45342;42.662;27.718;2022-10-17T06:08:17;7.22;;;4.15;;
59516;SDS011;45342;42.662;27.718;2022-10-17T06:10:42;9.10;;;4.45;;
59516;SDS011;45342;42.662;27.718;2022-10-17T06:13:12;8.13;;;4.25;;
59516;SDS011;45342;42.662;27.718;2022-10-17T06:15:37;6.38;;;3.88;;
59516;SDS011;45342;42.662;27.718;2022-10-17T06:18:03;7.50;;;4.35;;
59516;SDS011;45342;42.662;27.718;2022-10-17T06:20:28;9.70;;;4.68;;
59516;SDS011;45342;42.662;27.718;2022-10-17T06:22:54;7.95;;;4.18;;
59516;SDS011;45342;42.662;27.718;2022-10-17T06:25:20;7.82;;;4.65;;
59516;SDS011;45342;42.662;27.718;2022-10-17T06:27:46;9.02;;;4.50;;
59516;SDS011;45342;42.662;27.718;2022-10-17T06:30:13;7.55;;;4.47;;
59516;SDS011;45342;42.662;27.718;2022-10-17T06:32:39;8.05;;;4.53;;
59516;SDS011;45342;42.662;27.718;2022-10-17T06:35:04;8.25;;;4.60;;
59516;SDS011;45342;42.662;27.718;2022-10-17T06:37:31;9.05;;;4.68;;
59516;SDS011;45342;42.662;27.718;2022-10-17T06:39:57;8.43;;;4.55;;
59516;SDS011;45342;42.662;27.718;2022-10-17T06:42:24;7.55;;;4.45;;
59516;SDS011;45342;42.662;27.718;2022-10-17T06:44:50;7.38;;;4.63;;
59516;SDS011;45342;42.662;27.718;2022-10-17T06:47:16;6.18;;;4.10;;
59516;SDS011;45342;42.662;27.718;2022-10-17T06:49:42;6.95;;;4.50;;
59516;SDS011;45342;42.662;27.718;2022-10-17T06:52:08;8.65;;;4.50;;
59516;SDS011;45342;42.662;27.718;2022-10-17T06:54:34;8.23;;;4.53;;
59516;SDS011;45342;42.662;27.718;2022-10-17T06:57:00;6.72;;;4.18;;
59516;SDS011;45342;42.662;27.718;2022-10-17T06:59:26;8.27;;;4.28;;
59516;SDS011;45342;42.662;27.718;2022-10-17T07:01:52;8.35;;;4.38;;
59516;SDS011;45342;42.662;27.718;2022-10-17T07:04:18;5.78;;;4.13;;
59516;SDS011;45342;42.662;27.718;2022-10-17T07:06:43;6.90;;;4.25;;
59516;SDS011;45342;42.662;27.718;2022-10-17T07:09:09;10.25;;;4.97;;
59516;SDS011;45342;42.662;27.718;2022-10-17T07:11:39;6.93;;;4.35;;
59516;SDS011;45342;42.662;27.718;2022-10-17T07:14:04;6.53;;;4.10;;
59516;SDS011;45342;42.662;27.718;2022-10-17T07:16:30;7.22;;;4.07;;
59516;SDS011;45342;42.662;27.718;2022-10-17T07:18:55;6.72;;;4.13;;
59516;SDS011;45342;42.662;27.718;2022-10-17T07:21:21;8.95;;;4.38;;
59516;SDS011;45342;42.662;27.718;2022-10-17T07:23:48;8.63;;;4.65;;
59516;SDS011;45342;42.662;27.718;2022-10-17T07:26:15;7.85;;;4.40;;
59516;SDS011;45342;42.662;27.718;2022-10-17T07:28:42;8.02;;;4.38;;
59516;SDS011;45342;42.662;27.718;2022-10-17T07:31:11;8.18;;;4.30;;
59516;SDS011;45342;42.662;27.718;2022-10-17T07:33:38;6.95;;;4.18;;
59516;SDS011;45342;42.662;27.718;2022-10-17T07:36:05;6.65;;;4.60;;
59516;SDS011;45342;42.662;27.718;2022-10-17T07:38:30;7.20;;;4.20;;
59516;SDS011;45342;42.662;27.718;2022-10-17T07:40:57;6.20;;;4.20;;
59516;SDS011;45342;42.662;27.718;2022-10-17T07:43:24;6.88;;;4.40;;
59516;SDS011;45342;42.662;27.718;2022-10-17T07:48:16;7.28;;;4.20;;
59516;SDS011;45342;42.662;27.718;2022-10-17T07:50:42;6.40;;;4.32;;
59516;SDS011;45342;42.662;27.718;2022-10-17T07:53:07;9.80;;;4.47;;
59516;SDS011;45342;42.662;27.718;2022-10-17T07:55:33;7.90;;;4.30;;
59516;SDS011;45342;42.662;27.718;2022-10-17T07:57:58;6.07;;;4.57;;
59516;SDS011;45342;42.662;27.718;2022-10-17T08:00:25;7.93;;;4.53;;
59516;SDS011;45342;42.662;27.718;2022-10-17T08:02:51;7.18;;;4.13;;
59516;SDS011;45342;42.662;27.718;2022-10-17T08:05:17;5.72;;;4.22;;
59516;SDS011;45342;42.662;27.718;2022-10-17T08:07:42;5.20;;;4.03;;
59516;SDS011;45342;42.662;27.718;2022-10-17T08:10:10;6.90;;;4.32;;
59516;SDS011;45342;42.662;27.718;2022-10-17T08:12:37;5.53;;;4.20;;
59516;SDS011;45342;42.662;27.718;2022-10-17T08:15:03;6.32;;;4.32;;
59516;SDS011;45342;42.662;27.718;2022-10-17T08:17:29;8.70;;;4.45;;
59516;SDS011;45342;42.662;27.718;2022-10-17T08:19:55;6.78;;;4.05;;
59516;SDS011;45342;42.662;27.718;2022-10-17T08:22:21;6.55;;;3.97;;
59516;SDS011;45342;42.662;27.718;2022-10-17T08:24:47;5.93;;;3.80;;
59516;SDS011;45342;42.662;27.718;2022-10-17T08:27:12;4.80;;;3.90;;
59516;SDS011;45342;42.662;27.718;2022-10-17T08:29:39;8.07;;;4.57;;
59516;SDS011;45342;42.662;27.718;2022-10-17T08:32:05;7.60;;;3.88;;
59516;SDS011;45342;42.662;27.718;2022-10-17T08:34:31;9.30;;;4.43;;
59516;SDS011;45342;42.662;27.718;2022-10-17T08:36:57;5.53;;;4.18;;
59516;SDS011;45342;42.662;27.718;2022-10-17T08:39:23;7.55;;;4.60;;
59516;SDS011;45342;42.662;27.718;2022-10-17T08:41:55;8.60;;;4.85;;
59516;SDS011;45342;42.662;27.718;2022-10-17T08:47:38;6.28;;;4.35;;
59516;SDS011;45342;42.662;27.718;2022-10-17T08:52:50;6.45;;;4.50;;
59516;SDS011;45342;42.662;27.718;2022-10-17T08:57:58;13.25;;;4.97;;
59516;SDS011;45342;42.662;27.718;2022-10-17T09:00:24;8.88;;;4.30;;
59516;SDS011;45342;42.662;27.718;2022-10-17T09:05:40;7.60;;;4.10;;
59516;SDS011;45342;42.662;27.718;2022-10-17T09:08:40;7.32;;;4.63;;
59516;SDS011;45342;42.662;27.718;2022-10-17T09:11:23;9.18;;;4.38;;
59516;SDS011;45342;42.662;27.718;2022-10-17T09:19:38;6.03;;;4.32;;
59516;SDS011;45342;42.662;27.718;2022-10-17T09:22:19;6.35;;;4.18;;
59516;SDS011;45342;42.662;27.718;2022-10-17T09:25:00;7.75;;;4.18;;
59516;SDS011;45342;42.662;27.718;2022-10-17T09:30:20;8.82;;;4.05;;
59516;SDS011;45342;42.662;27.718;2022-10-17T09:32:52;7.25;;;3.70;;
59516;SDS011;45342;42.662;27.718;2022-10-17T09:35:18;5.55;;;4.07;;
59516;SDS011;45342;42.662;27.718;2022-10-17T09:37:44;7.82;;;4.00;;
59516;SDS011;45342;42.662;27.718;2022-10-17T09:42:40;6.40;;;4.20;;
59516;SDS011;45342;42.662;27.718;2022-10-17T09:45:16;8.90;;;4.07;;
59516;SDS011;45342;42.662;27.718;2022-10-17T09:48:00;6.50;;;3.85;;
59516;SDS011;45342;42.662;27.718;2022-10-17T09:50:41;7.88;;;3.90;;
59516;SDS011;45342;42.662;27.718;2022-10-17T09:55:55;6.68;;;3.83;;
59516;SDS011;45342;42.662;27.718;2022-10-17T09:58:22;5.35;;;3.60;;
59516;SDS011;45342;42.662;27.718;2022-10-17T10:00:48;5.03;;;3.63;;
59516;SDS011;45342;42.662;27.718;2022-10-17T10:03:17;8.52;;;4.18;;
59516;SDS011;45342;42.662;27.718;2022-10-17T10:08:28;6.85;;;3.67;;
59516;SDS011;45342;42.662;27.718;2022-10-17T10:13:40;6.00;;;3.33;;
59516;SDS011;45342;42.662;27.718;2022-10-17T10:16:14;8.70;;;3.67;;
59516;SDS011;45342;42.662;27.718;2022-10-17T10:18:48;7.43;;;3.30;;
59516;SDS011;45342;42.662;27.718;2022-10-17T10:21:16;8.80;;;4.03;;
59516;SDS011;45342;42.662;27.718;2022-10-17T10:26:40;6.68;;;3.53;;
59516;SDS011;45342;42.662;27.718;2022-10-17T10:37:19;7.72;;;3.75;;
59516;SDS011;45342;42.662;27.718;2022-10-17T10:39:55;8.27;;;3.65;;
59516;SDS011;45342;42.662;27.718;2022-10-17T10:44:52;5.93;;;3.40;;
59516;SDS011;45342;42.662;27.718;2022-10-17T10:47:23;5.57;;;3.35;;
59516;SDS011;45342;42.662;27.718;2022-10-17T10:53:08;5.75;;;3.33;;
59516;SDS011;45342;42.662;27.718;2022-10-17T10:55:51;11.00;;;4.72;;
59516;SDS011;45342;42.662;27.718;2022-10-17T10:58:36;6.25;;;3.97;;
59516;SDS011;45342;42.662;27.718;2022-10-17T11:01:12;8.25;;;3.63;;
59516;SDS011;45342;42.662;27.718;2022-10-17T11:06:21;6.82;;;3.33;;
59516;SDS011;45342;42.662;27.718;2022-10-17T11:09:01;6.65;;;3.67;;
59516;SDS011;45342;42.662;27.718;2022-10-17T11:12:00;5.65;;;3.90;;
59516;SDS011;45342;42.662;27.718;2022-10-17T11:15:13;7.60;;;3.75;;
59516;SDS011;45342;42.662;27.718;2022-10-17T11:17:38;5.37;;;3.53;;
59516;SDS011;45342;42.662;27.718;2022-10-17T11:20:14;8.18;;;4.05;;
59516;SDS011;45342;42.662;27.718;2022-10-17T11:22:48;6.00;;;3.70;;
59516;SDS011;45342;42.662;27.718;2022-10-17T11:25:28;5.75;;;3.70;;
59516;SDS011;45342;42.662;27.718;2022-10-17T11:27:57;4.55;;;3.47;;
59516;SDS011;45342;42.662;27.718;2022-10-17T11:30:23;5.38;;;3.47;;
59516;SDS011;45342;42.662;27.718;2022-10-17T11:32:56;4.78;;;3.33;;
59516;SDS011;45342;42.662;27.718;2022-10-17T11:38:17;6.55;;;3.63;;
59516;SDS011;45342;42.662;27.718;2022-10-17T11:40:54;6.18;;;3.67;;
59516;SDS011;45342;42.662;27.718;2022-10-17T11:46:00;7.70;;;3.58;;
59516;SDS011;45342;42.662;27.718;2022-10-17T11:48:31;6.30;;;3.88;;
59516;SDS011;45342;42.662;27.718;2022-10-17T11:51:10;6.70;;;3.70;;
59516;SDS011;45342;42.662;27.718;2022-10-17T11:53:48;5.57;;;3.60;;
59516;SDS011;45342;42.662;27.718;2022-10-17T11:56:27;5.15;;;3.60;;
59516;SDS011;45342;42.662;27.718;2022-10-17T11:59:04;5.53;;;3.40;;
59516;SDS011;45342;42.662;27.718;2022-10-17T12:01:51;5.93;;;3.45;;
59516;SDS011;45342;42.662;27.718;2022-10-17T12:12:36;4.20;;;3.40;;
59516;SDS011;45342;42.662;27.718;2022-10-17T12:17:36;5.00;;;3.60;;
59516;SDS011;45342;42.662;27.718;2022-10-17T12:25:32;5.00;;;3.53;;
59516;SDS011;45342;42.662;27.718;2022-10-17T12:28:10;6.38;;;3.50;;
59516;SDS011;45342;42.662;27.718;2022-10-17T12:30:59;4.78;;;3.20;;
59516;SDS011;45342;42.662;27.718;2022-10-17T12:33:30;7.20;;;3.72;;
59516;SDS011;45342;42.662;27.718;2022-10-17T12:38:45;5.80;;;3.47;;
59516;SDS011;45342;42.662;27.718;2022-10-17T12:41:13;5.30;;;3.58;;
59516;SDS011;45342;42.662;27.718;2022-10-17T12:43:46;5.13;;;3.72;;
59516;SDS011;45342;42.662;27.718;2022-10-17T12:46:39;4.68;;;3.40;;
59516;SDS011;45342;42.662;27.718;2022-10-17T13:00:20;5.28;;;3.40;;
59516;SDS011;45342;42.662;27.718;2022-10-17T13:02:46;4.88;;;3.53;;
59516;SDS011;45342;42.662;27.718;2022-10-17T13:05:14;7.07;;;3.65;;
59516;SDS011;45342;42.662;27.718;2022-10-17T13:07:43;7.18;;;3.60;;
59516;SDS011;45342;42.662;27.718;2022-10-17T13:10:20;5.95;;;3.60;;
59516;SDS011;45342;42.662;27.718;2022-10-17T13:12:48;7.47;;;3.85;;
59516;SDS011;45342;42.662;27.718;2022-10-17T13:15:15;6.70;;;3.78;;
59516;SDS011;45342;42.662;27.718;2022-10-17T13:17:42;5.03;;;3.40;;
59516;SDS011;45342;42.662;27.718;2022-10-17T13:20:18;6.43;;;3.85;;
59516;SDS011;45342;42.662;27.718;2022-10-17T13:22:47;5.55;;;3.60;;
59516;SDS011;45342;42.662;27.718;2022-10-17T13:25:14;5.88;;;3.75;;
59516;SDS011;45342;42.662;27.718;2022-10-17T13:27:41;6.30;;;3.40;;
59516;SDS011;45342;42.662;27.718;2022-10-17T13:32:51;5.10;;;3.38;;
59516;SDS011;45342;42.662;27.718;2022-10-17T13:35:24;7.75;;;3.67;;
59516;SDS011;45342;42.662;27.718;2022-10-17T13:37:50;5.00;;;3.25;;
59516;SDS011;45342;42.662;27.718;2022-10-17T13:40:17;5.00;;;3.70;;
59516;SDS011;45342;42.662;27.718;2022-10-17T13:42:44;4.07;;;3.20;;
59516;SDS011;45342;42.662;27.718;2022-10-17T13:45:22;6.28;;;3.65;;
59516;SDS011;45342;42.662;27.718;2022-10-17T13:47:50;5.68;;;3.40;;
59516;SDS011;45342;42.662;27.718;2022-10-17T13:50:49;6.97;;;3.97;;
59516;SDS011;45342;42.662;27.718;2022-10-17T13:53:18;5.63;;;3.83;;
59516;SDS011;45342;42.662;27.718;2022-10-17T13:58:31;6.38;;;3.90;;
59516;SDS011;45342;42.662;27.718;2022-10-17T14:01:04;7.30;;;3.83;;
59516;SDS011;45342;42.662;27.718;2022-10-17T14:03:30;7.95;;;4.13;;
59516;SDS011;45342;42.662;27.718;2022-10-17T14:08:45;6.38;;;3.90;;
59516;SDS011;45342;42.662;27.718;2022-10-17T14:13:56;6.32;;;3.97;;
59516;SDS011;45342;42.662;27.718;2022-10-17T14:16:23;6.82;;;3.80;;
59516;SDS011;45342;42.662;27.718;2022-10-17T14:18:50;5.43;;;3.70;;
59516;SDS011;45342;42.662;27.718;2022-10-17T14:21:20;6.00;;;3.80;;
59516;SDS011;45342;42.662;27.718;2022-10-17T14:23:47;4.53;;;3.70;;
59516;SDS011;45342;42.662;27.718;2022-10-17T14:28:39;5.53;;;3.65;;
59516;SDS011;45342;42.662;27.718;2022-10-17T14:31:29;7.60;;;3.47;;
59516;SDS011;45342;42.662;27.718;2022-10-17T14:33:54;6.47;;;3.25;;
59516;SDS011;45342;42.662;27.718;2022-10-17T14:36:28;7.97;;;4.10;;
59516;SDS011;45342;42.662;27.718;2022-10-17T14:38:59;7.05;;;3.85;;
59516;SDS011;45342;42.662;27.718;2022-10-17T14:41:26;5.68;;;3.95;;
59516;SDS011;45342;42.662;27.718;2022-10-17T14:43:58;8.13;;;3.80;;
59516;SDS011;45342;42.662;27.718;2022-10-17T14:46:25;5.35;;;3.60;;
59516;SDS011;45342;42.662;27.718;2022-10-17T14:49:13;6.32;;;3.78;;
59516;SDS011;45342;42.662;27.718;2022-10-17T14:54:41;7.40;;;3.90;;
59516;SDS011;45342;42.662;27.718;2022-10-17T14:57:22;4.85;;;3.53;;
59516;SDS011;45342;42.662;27.718;2022-10-17T14:59:50;7.32;;;3.80;;
59516;SDS011;45342;42.662;27.718;2022-10-17T15:02:16;6.78;;;4.10;;
59516;SDS011;45342;42.662;27.718;2022-10-17T15:04:42;6.50;;;3.90;;
59516;SDS011;45342;42.662;27.718;2022-10-17T15:07:14;6.65;;;3.50;;
59516;SDS011;45342;42.662;27.718;2022-10-17T15:09:41;5.38;;;3.40;;
59516;SDS011;45342;42.662;27.718;2022-10-17T15:12:15;6.00;;;3.70;;
59516;SDS011;45342;42.662;27.718;2022-10-17T15:14:43;10.57;;;3.95;;
59516;SDS011;45342;42.662;27.718;2022-10-17T15:17:10;6.72;;;3.08;;
59516;SDS011;45342;42.662;27.718;2022-10-17T15:19:38;6.53;;;3.72;;
59516;SDS011;45342;42.662;27.718;2022-10-17T15:22:03;6.15;;;3.72;;
59516;SDS011;45342;42.662;27.718;2022-10-17T15:24:29;7.75;;;3.67;;
59516;SDS011;45342;42.662;27.718;2022-10-17T15:26:54;5.63;;;3.55;;
59516;SDS011;45342;42.662;27.718;2022-10-17T15:29:20;5.20;;;3.25;;
59516;SDS011;45342;42.662;27.718;2022-10-17T15:31:46;8.00;;;3.72;;
59516;SDS011;45342;42.662;27.718;2022-10-17T15:34:11;6.22;;;3.17;;
59516;SDS011;45342;42.662;27.718;2022-10-17T15:36:40;5.03;;;3.15;;
59516;SDS011;45342;42.662;27.718;2022-10-17T15:39:08;4.55;;;3.20;;
59516;SDS011;45342;42.662;27.718;2022-10-17T15:41:34;4.05;;;3.33;;
59516;SDS011;45342;42.662;27.718;2022-10-17T15:44:00;5.30;;;3.60;;
59516;SDS011;45342;42.662;27.718;2022-10-17T15:46:33;5.63;;;3.17;;
59516;SDS011;45342;42.662;27.718;2022-10-17T15:49:01;7.55;;;3.67;;
59516;SDS011;45342;42.662;27.718;2022-10-17T15:51:32;5.70;;;3.60;;
59516;SDS011;45342;42.662;27.718;2022-10-17T15:53:57;5.22;;;3.63;;
59516;SDS011;45342;42.662;27.718;2022-10-17T15:56:29;6.50;;;3.55;;
59516;SDS011;45342;42.662;27.718;2022-10-17T15:58:56;6.70;;;3.40;;
59516;SDS011;45342;42.662;27.718;2022-10-17T16:01:25;6.50;;;3.65;;
59516;SDS011;45342;42.662;27.718;2022-10-17T16:03:52;6.25;;;3.75;;
59516;SDS011;45342;42.662;27.718;2022-10-17T16:06:18;5.57;;;3.40;;
59516;SDS011;45342;42.662;27.718;2022-10-17T16:08:45;5.85;;;3.60;;
59516;SDS011;45342;42.662;27.718;2022-10-17T16:13:41;5.03;;;3.60;;
59516;SDS011;45342;42.662;27.718;2022-10-17T16:16:14;6.15;;;3.47;;
59516;SDS011;45342;42.662;27.718;2022-10-17T16:18:40;6.53;;;3.50;;
59516;SDS011;45342;42.662;27.718;2022-10-17T16:21:07;5.38;;;3.83;;
59516;SDS011;45342;42.662;27.718;2022-10-17T16:23:35;7.00;;;3.60;;
59516;SDS011;45342;42.662;27.718;2022-10-17T16:26:01;6.28;;;3.58;;
59516;SDS011;45342;42.662;27.718;2022-10-17T16:28:27;5.60;;;3.13;;
59516;SDS011;45342;42.662;27.718;2022-10-17T16:30:53;7.00;;;3.60;;
59516;SDS011;45342;42.662;27.718;2022-10-17T16:33:19;4.35;;;3.40;;
59516;SDS011;45342;42.662;27.718;2022-10-17T16:35:44;5.47;;;3.70;;
59516;SDS011;45342;42.662;27.718;2022-10-17T16:38:11;4.97;;;3.38;;
59516;SDS011;45342;42.662;27.718;2022-10-17T16:40:37;6.38;;;3.38;;
59516;SDS011;45342;42.662;27.718;2022-10-17T16:43:04;5.93;;;3.40;;
59516;SDS011;45342;42.662;27.718;2022-10-17T16:45:29;4.07;;;2.90;;
59516;SDS011;45342;42.662;27.718;2022-10-17T16:47:55;5.45;;;3.20;;
59516;SDS011;45342;42.662;27.718;2022-10-17T16:50:21;5.55;;;3.03;;
59516;SDS011;45342;42.662;27.718;2022-10-17T16:52:47;5.85;;;3.30;;
59516;SDS011;45342;42.662;27.718;2022-10-17T16:55:12;7.18;;;3.38;;
59516;SDS011;45342;42.662;27.718;2022-10-17T16:57:38;5.45;;;3.47;;
59516;SDS011;45342;42.662;27.718;2022-10-17T17:00:04;6.80;;;3.78;;
59516;SDS011;45342;42.662;27.718;2022-10-17T17:02:31;7.65;;;3.42;;
59516;SDS011;45342;42.662;27.718;2022-10-17T17:04:56;4.78;;;3.03;;
59516;SDS011;45342;42.662;27.718;2022-10-17T17:07:22;6.00;;;3.25;;
59516;SDS011;45342;42.662;27.718;2022-10-17T17:09:48;6.75;;;3.55;;
59516;SDS011;45342;42.662;27.718;2022-10-17T17:12:14;6.28;;;3.10;;